Miemaru — JL6277 — position and weather

sailwx.info

Track history (hours):
 
Tides and Currents Weather Stations Pressure Air Temp Water Temp Dewpoint Dewpoint Depression Visibility Wind Speed Wind Dir Waves Ship Positions

Miemaru

Last reported at 2018-Feb-21 18:57 UTC. Time now 2018-Feb-22 04:44 UTC.
Position N 33°48' E 135°05'.

Length 75 m; draft 3.7 m.

Type: Cargo ship. MMSI: 431500599.

Date/timePositionNaut miles runAvg speedWind from/ knotsBaromVisibWave heightAir tempDewpointWater temp
2018-Feb-21 18:57N 33°48' E 135°05'511.7
2018-Feb-21 18:31N 33°52' E 135°01'611.6
2018-Feb-21 18:00N 33°56' E 134°56'611.3
2018-Feb-21 17:30N 34°01' E 134°52'611.7
2018-Feb-21 17:00N 34°05' E 134°47'711.7
2018-Feb-21 16:27N 34°10' E 134°42'511.3
2018-Feb-21 16:00N 34°14' E 134°39'510.7
2018-Feb-21 15:30N 34°17' E 134°33'611.0
2018-Feb-21 14:59N 34°19' E 134°27'510.7
2018-Feb-21 14:30N 34°21' E 134°21'810.1
2018-Feb-21 13:42N 34°24' E 134°12'8 0.4
2018-Feb-20 15:42N 34°22' E 134°22'211.8
2018-Feb-20 15:30N 34°21' E 134°24'611.9
2018-Feb-20 15:00N 34°18' E 134°31'611.9
2018-Feb-20 14:30N 34°16' E 134°37'712.4
2018-Feb-20 13:56N 34°10' E 134°43'511.8
2018-Feb-20 13:30N 34°06' E 134°47'611.7
2018-Feb-20 13:00N 34°02' E 134°51'612.0
2018-Feb-20 12:30N 33°57' E 134°56'612.0
2018-Feb-20 12:00N 33°53' E 135°01'812.0
2018-Feb-20 11:22N 33°47' E 135°07'157 9.7
2018-Feb-19 19:11N 34°31' E 138°09'410.2
2018-Feb-19 18:46N 34°32' E 138°14'310.4
2018-Feb-19 18:27N 34°33' E 138°18'510.9
2018-Feb-19 18:00N 34°33' E 138°24'610.8
2018-Feb-19 17:25N 34°34' E 138°31'510.9
2018-Feb-19 16:57N 34°34' E 138°37'510.8
2018-Feb-19 16:30N 34°35' E 138°43'511.0
2018-Feb-19 16:00N 34°35' E 138°50'510.0
2018-Feb-19 15:30N 34°36' E 138°56'610.3
2018-Feb-19 14:55N 34°39' E 139°02'911.8
2018-Feb-19 14:11N 34°47' E 139°08'611.7
2018-Feb-19 13:41N 34°51' E 139°13'311.4
2018-Feb-19 13:24N 34°53' E 139°16'411.5
2018-Feb-19 13:00N 34°55' E 139°20'611.5
2018-Feb-19 12:27N 34°59' E 139°27'511.0
2018-Feb-19 12:00N 35°01' E 139°32'611.3
2018-Feb-19 11:30N 35°05' E 139°37'612.1
2018-Feb-19 11:00N 35°09' E 139°43'611.8
2018-Feb-19 10:30N 35°14' E 139°46'611.5
2018-Feb-19 10:01N 35°19' E 139°43'611.1
2018-Feb-19 09:30N 35°25' E 139°43'611.3
2018-Feb-19 09:00N 35°29' E 139°48'611.1
2018-Feb-19 08:30N 35°34' E 139°51'4 8.6
2018-Feb-19 08:00N 35°38' E 139°48'0 0.0
2018-Feb-18 22:57N 35°38' E 139°48'2 4.3
2018-Feb-18 22:29N 35°37' E 139°50'3 6.1
2018-Feb-18 22:00N 35°35' E 139°53'0 0.0
2018-Feb-18 21:28N 35°35' E 139°53'0 0.0
2018-Feb-18 20:58N 35°35' E 139°53'0 0.0
2018-Feb-18 20:30N 35°35' E 139°53'0 0.0
2018-Feb-18 20:00N 35°35' E 139°53'0 0.0
2018-Feb-18 19:30N 35°35' E 139°53'0 0.0
2018-Feb-18 19:00N 35°35' E 139°53'0 0.0
2018-Feb-18 18:30N 35°35' E 139°53'0 0.0
2018-Feb-18 18:00N 35°35' E 139°53'0 0.0
2018-Feb-18 17:30N 35°35' E 139°53'0 0.1
2018-Feb-18 17:00N 35°35' E 139°53'0 0.0
2018-Feb-18 16:29N 35°35' E 139°53'0 0.0
2018-Feb-18 15:58N 35°35' E 139°53'0 0.0
2018-Feb-18 15:30N 35°35' E 139°53'0 0.0
2018-Feb-18 15:00N 35°35' E 139°53'0 0.0
2018-Feb-18 14:30N 35°35' E 139°53'0 0.0
2018-Feb-18 14:00N 35°35' E 139°53'0 0.0
2018-Feb-18 13:30N 35°35' E 139°53'0 0.0
2018-Feb-18 13:00N 35°35' E 139°53'0 0.0
2018-Feb-18 12:29N 35°35' E 139°53'0 0.0
2018-Feb-18 12:00N 35°35' E 139°53'0 0.0
2018-Feb-18 11:30N 35°35' E 139°53'0 0.0
2018-Feb-18 11:00N 35°35' E 139°53'0 0.1
2018-Feb-18 10:30N 35°35' E 139°53'0 0.0
2018-Feb-18 10:00N 35°35' E 139°53'0 0.0
2018-Feb-18 09:30N 35°35' E 139°53'0 0.1
2018-Feb-18 09:00N 35°35' E 139°53'0 0.0
2018-Feb-18 08:30N 35°35' E 139°53'0 0.1
2018-Feb-18 08:00N 35°35' E 139°53'0 0.1
2018-Feb-18 07:30N 35°35' E 139°53'0 0.0
2018-Feb-18 07:00N 35°35' E 139°53'0 0.0
2018-Feb-18 06:30N 35°35' E 139°53'0 0.0
2018-Feb-18 06:00N 35°35' E 139°53'0 0.0
2018-Feb-18 05:30N 35°35' E 139°53'0 0.0
2018-Feb-18 05:00N 35°35' E 139°53'0 0.0
2018-Feb-18 04:30N 35°35' E 139°53'0 0.0
2018-Feb-18 03:59N 35°35' E 139°53'0 0.0
2018-Feb-18 03:28N 35°35' E 139°53'0 0.0
2018-Feb-18 03:00N 35°35' E 139°53'0 0.0
2018-Feb-18 02:30N 35°35' E 139°53'0 0.0
2018-Feb-18 02:00N 35°35' E 139°53'0 0.0
2018-Feb-18 01:30N 35°35' E 139°53'0 0.0
2018-Feb-18 01:00N 35°35' E 139°53'0 0.0
2018-Feb-18 00:30N 35°35' E 139°53'0 0.0
2018-Feb-18 00:00N 35°35' E 139°53'0 0.0
2018-Feb-17 23:30N 35°35' E 139°53'0 0.0
2018-Feb-17 23:00N 35°35' E 139°53'0 0.0
2018-Feb-17 22:30N 35°35' E 139°53'0 0.1
2018-Feb-17 21:58N 35°35' E 139°53'0 0.0
2018-Feb-17 21:30N 35°35' E 139°53'3 4.7
2018-Feb-17 20:55N 35°32' E 139°53'410.6
2018-Feb-17 20:30N 35°28' E 139°51'510.9
2018-Feb-17 20:00N 35°24' E 139°47'510.3
2018-Feb-17 19:30N 35°20' E 139°44'510.0
2018-Feb-17 19:00N 35°15' E 139°47'5 9.9
2018-Feb-17 18:30N 35°10' E 139°46'5 9.4
2018-Feb-17 18:00N 35°06' E 139°44'5 9.4
2018-Feb-17 17:29N 35°02' E 139°40'5 9.8
2018-Feb-17 17:00N 34°59' E 139°35'1111.2
2018-Feb-17 16:03N 34°53' E 139°25'111.4
2018-Feb-17 15:58N 34°53' E 139°24'611.7
2018-Feb-17 15:26N 34°49' E 139°18'611.7
2018-Feb-17 14:55N 34°45' E 139°12'512.1
2018-Feb-17 14:30N 34°42' E 139°07'812.1
2018-Feb-17 13:52N 34°37' E 138°60'612.8
2018-Feb-17 13:26N 34°35' E 138°54'912.0
2018-Feb-17 12:43N 34°34' E 138°43'311.8
2018-Feb-17 12:27N 34°34' E 138°39'611.6
2018-Feb-17 11:54N 34°34' E 138°32'511.3
2018-Feb-17 11:26N 34°33' E 138°25'611.2
2018-Feb-17 10:55N 34°33' E 138°18'165 9.4
2018-Feb-16 17:30N 33°46' E 135°08'611.5
2018-Feb-16 16:59N 33°50' E 135°03'612.0
2018-Feb-16 16:30N 33°54' E 134°59'611.6
2018-Feb-16 16:00N 33°59' E 134°54'611.7
2018-Feb-16 15:30N 34°03' E 134°49'611.8
2018-Feb-16 15:00N 34°08' E 134°45'612.8
2018-Feb-16 14:30N 34°13' E 134°40'612.5
2018-Feb-16 14:00N 34°17' E 134°34'611.6
2018-Feb-16 13:29N 34°19' E 134°27'511.4
2018-Feb-16 13:00N 34°21' E 134°21'510.9
2018-Feb-16 12:30N 34°23' E 134°15'1 0.0
2018-Feb-14 19:49N 34°24' E 134°16'512.1
2018-Feb-14 19:27N 34°22' E 134°21'511.8
2018-Feb-14 19:00N 34°20' E 134°27'611.8
2018-Feb-14 18:31N 34°17' E 134°34'611.4
2018-Feb-14 18:01N 34°14' E 134°39'611.3
2018-Feb-14 17:26N 34°09' E 134°44'511.1
2018-Feb-14 17:01N 34°05' E 134°48'611.4
2018-Feb-14 16:30N 34°01' E 134°52'611.4
2018-Feb-14 16:00N 33°56' E 134°56'611.4
2018-Feb-14 15:30N 33°52' E 135°01'611.2
2018-Feb-14 14:59N 33°48' E 135°06'113 8.7
2018-Feb-14 01:59N 34°29' E 137°13'3510.9
2018-Feb-13 22:45N 34°34' E 137°55'4 9.9
2018-Feb-13 22:20N 34°34' E 138°00'3 9.2
2018-Feb-13 21:59N 34°34' E 138°04'6 7.8
2018-Feb-13 21:16N 34°34' E 138°11'2 7.5
2018-Feb-13 21:00N 34°34' E 138°13'4 8.6
2018-Feb-13 20:30N 34°35' E 138°18'5 8.6
2018-Feb-13 19:59N 34°36' E 138°23'5 8.3
2018-Feb-13 19:21N 34°38' E 138°30'2 7.0
2018-Feb-13 19:01N 34°38' E 138°32'4 7.0
2018-Feb-13 18:30N 34°37' E 138°37'3 6.8
2018-Feb-13 18:01N 34°36' E 138°41'4 6.8
2018-Feb-13 17:27N 34°35' E 138°45'3 6.6
2018-Feb-13 17:01N 34°35' E 138°49'4 6.7
2018-Feb-13 16:26N 34°35' E 138°53'4 9.0
2018-Feb-13 16:00N 34°37' E 138°58'5 9.2
2018-Feb-13 15:26N 34°40' E 139°02'7 9.6
2018-Feb-13 14:44N 34°45' E 139°07'310.4
2018-Feb-13 14:28N 34°48' E 139°10'810.6
2018-Feb-13 13:44N 34°53' E 139°16'3 9.9
2018-Feb-13 13:28N 34°55' E 139°19'5 9.9
2018-Feb-13 12:57N 34°57' E 139°24'4 9.4
2018-Feb-13 12:29N 35°00' E 139°28'5 9.5
2018-Feb-13 12:01N 35°03' E 139°33'5 9.6
2018-Feb-13 11:31N 35°05' E 139°38'5 9.9
2018-Feb-13 11:01N 35°08' E 139°43'610.9
2018-Feb-13 10:30N 35°13' E 139°46'611.7
2018-Feb-13 10:00N 35°18' E 139°44'611.8
2018-Feb-13 09:30N 35°24' E 139°43'611.8
2018-Feb-13 09:00N 35°29' E 139°47'611.6
2018-Feb-13 08:30N 35°34' E 139°51'5 9.5
2018-Feb-13 08:00N 35°38' E 139°48'0 0.0
2018-Feb-12 20:50N 35°38' E 139°48'0 0.0
2018-Feb-12 19:59N 35°38' E 139°48'0 0.0
2018-Feb-12 19:20N 35°38' E 139°48'0 0.0
2018-Feb-12 18:50N 35°38' E 139°48'0 0.0
2018-Feb-12 18:17N 35°38' E 139°48'0 0.0
2018-Feb-12 05:41N 35°38' E 139°48'0 0.0
2018-Feb-12 05:14N 35°38' E 139°48'0 0.0
2018-Feb-11 23:02N 35°38' E 139°48'0 0.0
2018-Feb-11 22:55N 35°38' E 139°48'3 7.2
2018-Feb-11 22:30N 35°36' E 139°50'2 4.4
2018-Feb-11 22:00N 35°36' E 139°53'0 0.0
2018-Feb-11 21:28N 35°36' E 139°53'0 0.0
2018-Feb-11 20:47N 35°36' E 139°53'0 0.0
2018-Feb-11 19:44N 35°36' E 139°53'0 0.2
2018-Feb-11 19:25N 35°36' E 139°53'0 0.0
2018-Feb-11 18:59N 35°36' E 139°53'  
Track history (hours):
 
Tides and Currents Weather Stations Pressure Air Temp Water Temp Dewpoint Dewpoint Depression Visibility Wind Speed Wind Dir Waves Ship Positions

Miemaru

Last reported at 2018-Feb-21 18:57 UTC. Time now 2018-Feb-22 04:44 UTC.
Position N 33°48' E 135°05'.

Length 75 m; draft 3.7 m.

Type: Cargo ship. MMSI: 431500599.

Date/timePositionNaut miles runAvg speedWind from/ knotsBaromVisibWave heightAir tempDewpointWater temp
2018-Feb-21 18:57N 33°48' E 135°05'511.7
2018-Feb-21 18:31N 33°52' E 135°01'611.6
2018-Feb-21 18:00N 33°56' E 134°56'611.3
2018-Feb-21 17:30N 34°01' E 134°52'611.7
2018-Feb-21 17:00N 34°05' E 134°47'711.7
2018-Feb-21 16:27N 34°10' E 134°42'511.3
2018-Feb-21 16:00N 34°14' E 134°39'510.7
2018-Feb-21 15:30N 34°17' E 134°33'611.0
2018-Feb-21 14:59N 34°19' E 134°27'510.7
2018-Feb-21 14:30N 34°21' E 134°21'810.1
2018-Feb-21 13:42N 34°24' E 134°12'8 0.4
2018-Feb-20 15:42N 34°22' E 134°22'211.8
2018-Feb-20 15:30N 34°21' E 134°24'611.9
2018-Feb-20 15:00N 34°18' E 134°31'611.9
2018-Feb-20 14:30N 34°16' E 134°37'712.4
2018-Feb-20 13:56N 34°10' E 134°43'511.8
2018-Feb-20 13:30N 34°06' E 134°47'611.7
2018-Feb-20 13:00N 34°02' E 134°51'612.0
2018-Feb-20 12:30N 33°57' E 134°56'612.0
2018-Feb-20 12:00N 33°53' E 135°01'812.0
2018-Feb-20 11:22N 33°47' E 135°07'157 9.7
2018-Feb-19 19:11N 34°31' E 138°09'410.2
2018-Feb-19 18:46N 34°32' E 138°14'310.4
2018-Feb-19 18:27N 34°33' E 138°18'510.9
2018-Feb-19 18:00N 34°33' E 138°24'610.8
2018-Feb-19 17:25N 34°34' E 138°31'510.9
2018-Feb-19 16:57N 34°34' E 138°37'510.8
2018-Feb-19 16:30N 34°35' E 138°43'511.0
2018-Feb-19 16:00N 34°35' E 138°50'510.0
2018-Feb-19 15:30N 34°36' E 138°56'610.3
2018-Feb-19 14:55N 34°39' E 139°02'911.8
2018-Feb-19 14:11N 34°47' E 139°08'611.7
2018-Feb-19 13:41N 34°51' E 139°13'311.4
2018-Feb-19 13:24N 34°53' E 139°16'411.5
2018-Feb-19 13:00N 34°55' E 139°20'611.5
2018-Feb-19 12:27N 34°59' E 139°27'511.0
2018-Feb-19 12:00N 35°01' E 139°32'611.3
2018-Feb-19 11:30N 35°05' E 139°37'612.1
2018-Feb-19 11:00N 35°09' E 139°43'611.8
2018-Feb-19 10:30N 35°14' E 139°46'611.5
2018-Feb-19 10:01N 35°19' E 139°43'611.1
2018-Feb-19 09:30N 35°25' E 139°43'611.3
2018-Feb-19 09:00N 35°29' E 139°48'611.1
2018-Feb-19 08:30N 35°34' E 139°51'4 8.6
2018-Feb-19 08:00N 35°38' E 139°48'0 0.0
2018-Feb-18 22:57N 35°38' E 139°48'2 4.3
2018-Feb-18 22:29N 35°37' E 139°50'3 6.1
2018-Feb-18 22:00N 35°35' E 139°53'0 0.0
2018-Feb-18 21:28N 35°35' E 139°53'0 0.0
2018-Feb-18 20:58N 35°35' E 139°53'0 0.0
2018-Feb-18 20:30N 35°35' E 139°53'0 0.0
2018-Feb-18 20:00N 35°35' E 139°53'0 0.0
2018-Feb-18 19:30N 35°35' E 139°53'0 0.0
2018-Feb-18 19:00N 35°35' E 139°53'0 0.0
2018-Feb-18 18:30N 35°35' E 139°53'0 0.0
2018-Feb-18 18:00N 35°35' E 139°53'0 0.0
2018-Feb-18 17:30N 35°35' E 139°53'0 0.1
2018-Feb-18 17:00N 35°35' E 139°53'0 0.0
2018-Feb-18 16:29N 35°35' E 139°53'0 0.0
2018-Feb-18 15:58N 35°35' E 139°53'0 0.0
2018-Feb-18 15:30N 35°35' E 139°53'0 0.0
2018-Feb-18 15:00N 35°35' E 139°53'0 0.0
2018-Feb-18 14:30N 35°35' E 139°53'0 0.0
2018-Feb-18 14:00N 35°35' E 139°53'0 0.0
2018-Feb-18 13:30N 35°35' E 139°53'0 0.0
2018-Feb-18 13:00N 35°35' E 139°53'0 0.0
2018-Feb-18 12:29N 35°35' E 139°53'0 0.0
2018-Feb-18 12:00N 35°35' E 139°53'0 0.0
2018-Feb-18 11:30N 35°35' E 139°53'0 0.0
2018-Feb-18 11:00N 35°35' E 139°53'0 0.1
2018-Feb-18 10:30N 35°35' E 139°53'0 0.0
2018-Feb-18 10:00N 35°35' E 139°53'0 0.0
2018-Feb-18 09:30N 35°35' E 139°53'0 0.1
2018-Feb-18 09:00N 35°35' E 139°53'0 0.0
2018-Feb-18 08:30N 35°35' E 139°53'0 0.1
2018-Feb-18 08:00N 35°35' E 139°53'0 0.1
2018-Feb-18 07:30N 35°35' E 139°53'0 0.0
2018-Feb-18 07:00N 35°35' E 139°53'0 0.0
2018-Feb-18 06:30N 35°35' E 139°53'0 0.0
2018-Feb-18 06:00N 35°35' E 139°53'0 0.0
2018-Feb-18 05:30N 35°35' E 139°53'0 0.0
2018-Feb-18 05:00N 35°35' E 139°53'0 0.0
2018-Feb-18 04:30N 35°35' E 139°53'0 0.0
2018-Feb-18 03:59N 35°35' E 139°53'0 0.0
2018-Feb-18 03:28N 35°35' E 139°53'0 0.0
2018-Feb-18 03:00N 35°35' E 139°53'0 0.0
2018-Feb-18 02:30N 35°35' E 139°53'0 0.0
2018-Feb-18 02:00N 35°35' E 139°53'0 0.0
2018-Feb-18 01:30N 35°35' E 139°53'0 0.0
2018-Feb-18 01:00N 35°35' E 139°53'0 0.0
2018-Feb-18 00:30N 35°35' E 139°53'0 0.0
2018-Feb-18 00:00N 35°35' E 139°53'0 0.0
2018-Feb-17 23:30N 35°35' E 139°53'0 0.0
2018-Feb-17 23:00N 35°35' E 139°53'0 0.0
2018-Feb-17 22:30N 35°35' E 139°53'0 0.1
2018-Feb-17 21:58N 35°35' E 139°53'0 0.0
2018-Feb-17 21:30N 35°35' E 139°53'3 4.7
2018-Feb-17 20:55N 35°32' E 139°53'410.6
2018-Feb-17 20:30N 35°28' E 139°51'510.9
2018-Feb-17 20:00N 35°24' E 139°47'510.3
2018-Feb-17 19:30N 35°20' E 139°44'510.0
2018-Feb-17 19:00N 35°15' E 139°47'5 9.9
2018-Feb-17 18:30N 35°10' E 139°46'5 9.4
2018-Feb-17 18:00N 35°06' E 139°44'5 9.4
2018-Feb-17 17:29N 35°02' E 139°40'5 9.8
2018-Feb-17 17:00N 34°59' E 139°35'1111.2
2018-Feb-17 16:03N 34°53' E 139°25'111.4
2018-Feb-17 15:58N 34°53' E 139°24'611.7
2018-Feb-17 15:26N 34°49' E 139°18'611.7
2018-Feb-17 14:55N 34°45' E 139°12'512.1
2018-Feb-17 14:30N 34°42' E 139°07'812.1
2018-Feb-17 13:52N 34°37' E 138°60'612.8
2018-Feb-17 13:26N 34°35' E 138°54'912.0
2018-Feb-17 12:43N 34°34' E 138°43'311.8
2018-Feb-17 12:27N 34°34' E 138°39'611.6
2018-Feb-17 11:54N 34°34' E 138°32'511.3
2018-Feb-17 11:26N 34°33' E 138°25'611.2
2018-Feb-17 10:55N 34°33' E 138°18'165 9.4
2018-Feb-16 17:30N 33°46' E 135°08'611.5
2018-Feb-16 16:59N 33°50' E 135°03'612.0
2018-Feb-16 16:30N 33°54' E 134°59'611.6
2018-Feb-16 16:00N 33°59' E 134°54'611.7
2018-Feb-16 15:30N 34°03' E 134°49'611.8
2018-Feb-16 15:00N 34°08' E 134°45'612.8
2018-Feb-16 14:30N 34°13' E 134°40'612.5
2018-Feb-16 14:00N 34°17' E 134°34'611.6
2018-Feb-16 13:29N 34°19' E 134°27'511.4
2018-Feb-16 13:00N 34°21' E 134°21'510.9
2018-Feb-16 12:30N 34°23' E 134°15'1 0.0
2018-Feb-14 19:49N 34°24' E 134°16'512.1
2018-Feb-14 19:27N 34°22' E 134°21'511.8
2018-Feb-14 19:00N 34°20' E 134°27'611.8
2018-Feb-14 18:31N 34°17' E 134°34'611.4
2018-Feb-14 18:01N 34°14' E 134°39'611.3
2018-Feb-14 17:26N 34°09' E 134°44'511.1
2018-Feb-14 17:01N 34°05' E 134°48'611.4
2018-Feb-14 16:30N 34°01' E 134°52'611.4
2018-Feb-14 16:00N 33°56' E 134°56'611.4
2018-Feb-14 15:30N 33°52' E 135°01'611.2
2018-Feb-14 14:59N 33°48' E 135°06'113 8.7
2018-Feb-14 01:59N 34°29' E 137°13'3510.9
2018-Feb-13 22:45N 34°34' E 137°55'4 9.9
2018-Feb-13 22:20N 34°34' E 138°00'3 9.2
2018-Feb-13 21:59N 34°34' E 138°04'6 7.8
2018-Feb-13 21:16N 34°34' E 138°11'2 7.5
2018-Feb-13 21:00N 34°34' E 138°13'4 8.6
2018-Feb-13 20:30N 34°35' E 138°18'5 8.6
2018-Feb-13 19:59N 34°36' E 138°23'5 8.3
2018-Feb-13 19:21N 34°38' E 138°30'2 7.0
2018-Feb-13 19:01N 34°38' E 138°32'4 7.0
2018-Feb-13 18:30N 34°37' E 138°37'3 6.8
2018-Feb-13 18:01N 34°36' E 138°41'4 6.8
2018-Feb-13 17:27N 34°35' E 138°45'3 6.6
2018-Feb-13 17:01N 34°35' E 138°49'4 6.7
2018-Feb-13 16:26N 34°35' E 138°53'4 9.0
2018-Feb-13 16:00N 34°37' E 138°58'5 9.2
2018-Feb-13 15:26N 34°40' E 139°02'7 9.6
2018-Feb-13 14:44N 34°45' E 139°07'310.4
2018-Feb-13 14:28N 34°48' E 139°10'810.6
2018-Feb-13 13:44N 34°53' E 139°16'3 9.9
2018-Feb-13 13:28N 34°55' E 139°19'5 9.9
2018-Feb-13 12:57N 34°57' E 139°24'4 9.4
2018-Feb-13 12:29N 35°00' E 139°28'5 9.5
2018-Feb-13 12:01N 35°03' E 139°33'5 9.6
2018-Feb-13 11:31N 35°05' E 139°38'5 9.9
2018-Feb-13 11:01N 35°08' E 139°43'610.9
2018-Feb-13 10:30N 35°13' E 139°46'611.7
2018-Feb-13 10:00N 35°18' E 139°44'611.8
2018-Feb-13 09:30N 35°24' E 139°43'611.8
2018-Feb-13 09:00N 35°29' E 139°47'611.6
2018-Feb-13 08:30N 35°34' E 139°51'5 9.5
2018-Feb-13 08:00N 35°38' E 139°48'0 0.0
2018-Feb-12 20:50N 35°38' E 139°48'0 0.0
2018-Feb-12 19:59N 35°38' E 139°48'0 0.0
2018-Feb-12 19:20N 35°38' E 139°48'0 0.0
2018-Feb-12 18:50N 35°38' E 139°48'0 0.0
2018-Feb-12 18:17N 35°38' E 139°48'0 0.0
2018-Feb-12 05:41N 35°38' E 139°48'0 0.0
2018-Feb-12 05:14N 35°38' E 139°48'0 0.0
2018-Feb-11 23:02N 35°38' E 139°48'0 0.0
2018-Feb-11 22:55N 35°38' E 139°48'3 7.2
2018-Feb-11 22:30N 35°36' E 139°50'2 4.4
2018-Feb-11 22:00N 35°36' E 139°53'0 0.0
2018-Feb-11 21:28N 35°36' E 139°53'0 0.0
2018-Feb-11 20:47N 35°36' E 139°53'0 0.0
2018-Feb-11 19:44N 35°36' E 139°53'0 0.2
2018-Feb-11 19:25N 35°36' E 139°53'0 0.0
2018-Feb-11 18:59N 35°36' E 139°53'  

Dump ship's entire track history